Terminal Aerodrome Forecast
Issued by NWS

Current Version | Previous Version | Text Only | Print | Product List | Glossary On
Versions: 1 2 3 4 5 6 7 8 9 10 11 12 13 14 15
606
FTUS44 KCRP 171738
TAFLRD
TAF
KLRD 171738Z 1718/1818 07005KT P6SM OVC060
     FM180300 09004KT P6SM OVC035=

USA.gov is the U.S. government's official web portal to all federal, state and local government web resources and services.